Kegley, West Virginia
Current Conditions -  °F | °C
As of 10:52 AM on Friday 21 Nov 2014 (Local Time) from KBLF Reporting Station
Clear Clear  
Wind Chill: -7°   Ceiling: Unl
Heat Index: -2°   Visibility: 10mi
Dew Point: -13°   Wind: 9mph
Humidity: 45%   Direction: 300°WNW
Pressure: 30.37"   Gusts: 18mph
Location:  37.4°N, 81.13°W
Report Text: KBLF 211552Z AUTO 30008G16KT 10SM CLR M02/M13 A3037 RMK AO2 SLP306 T10221128
Loading
Personal Weather Stations






























Interactive Weather Map New forecast layout! Learn more

10-Day Weather Forecast

Advertisements
Track Severe Weather on mobile